Time;durP1;ratioP1;P1;durP2;ratioP2;P2;SDS_P1;SDS_P2;PMS_P1;PMS_P2;Temp;Humidity;BMP_temperature;BMP_pressure;BME280_temperature;BME280_humidity;BME280_pressure;Samples;Min_cycle;Max_cycle;Signal;HPM_P1;HPM_P2
2023/03/13 00:00:34;;;;;;;39.63;6.90;;;;;;;;;;5093606;28;20115;-79
2023/03/13 00:03:00;;;;;;;37.92;7.05;;;;;;;;;;5092428;28;20060;-79
2023/03/13 00:05:26;;;;;;;44.60;7.65;;;;;;;;;;5093393;28;20516;-79
2023/03/13 00:07:53;;;;;;;42.35;7.13;;;;;;;;;;5088988;28;20537;-80
2023/03/13 00:10:19;;;;;;;46.33;8.02;;;;;;;;;;5091198;28;20513;-78
2023/03/13 00:12:45;;;;;;;40.60;6.65;;;;;;;;;;5093441;28;20075;-78
2023/03/13 00:15:11;;;;;;;37.13;6.45;;;;;;;;;;5092224;28;20478;-79
2023/03/13 00:17:37;;;;;;;35.63;6.63;;;;;;;;;;5082169;28;20117;-78
2023/03/13 00:20:03;;;;;;;40.28;6.57;;;;;;;;;;5091463;28;20055;-79
2023/03/13 00:22:29;;;;;;;38.10;6.40;;;;;;;;;;5072826;28;20036;-78
2023/03/13 00:24:56;;;;;;;33.83;6.57;;;;;;;;;;5082573;28;20047;-79
2023/03/13 00:27:22;;;;;;;31.52;6.07;;;;;;;;;;5076592;28;20044;-79
2023/03/13 00:29:49;;;;;;;37.63;7.40;;;;;;;;;;5090713;28;20082;-79
2023/03/13 00:32:15;;;;;;;37.05;6.00;;;;;;;;;;5080789;28;20048;-79
2023/03/13 00:34:41;;;;;;;38.15;5.85;;;;;;;;;;5078587;28;20040;-79
2023/03/13 00:37:07;;;;;;;38.55;6.35;;;;;;;;;;5081418;28;20066;-79
2023/03/13 00:39:34;;;;;;;38.83;7.25;;;;;;;;;;5106383;28;20043;-79
2023/03/13 00:42:02;;;;;;;49.00;7.13;;;;;;;;;;5097220;28;20045;-76
2023/03/13 00:44:28;;;;;;;35.67;6.13;;;;;;;;;;5109448;28;20093;-78
2023/03/13 00:46:54;;;;;;;34.78;6.93;;;;;;;;;;5100359;28;20040;-76
2023/03/13 00:49:21;;;;;;;37.67;6.55;;;;;;;;;;5100455;28;20037;-77
2023/03/13 00:51:48;;;;;;;30.88;5.88;;;;;;;;;;5109979;28;20024;-75
2023/03/13 00:54:14;;;;;;;38.60;6.57;;;;;;;;;;5113602;28;20020;-76
2023/03/13 00:56:43;;;;;;;28.42;5.80;;;;;;;;;;5121917;28;20027;-76
2023/03/13 00:59:09;;;;;;;43.33;7.03;;;;;;;;;;5105760;28;20047;-79
2023/03/13 01:01:36;;;;;;;37.20;6.40;;;;;;;;;;5111113;28;20048;-79
2023/03/13 01:04:06;;;;;;;35.20;6.10;;;;;;;;;;5112953;28;20394;-80
2023/03/13 01:06:34;;;;;;;35.88;6.25;;;;;;;;;;5115954;28;20074;-78
2023/03/13 01:09:00;;;;;;;32.92;6.38;;;;;;;;;;5108965;28;20106;-79
2023/03/13 01:11:27;;;;;;;32.63;5.82;;;;;;;;;;5113841;28;20051;-79
2023/03/13 01:13:58;;;;;;;34.83;6.28;;;;;;;;;;5113449;28;20040;-79
2023/03/13 01:16:24;;;;;;;34.07;5.63;;;;;;;;;;5114408;28;20054;-79
2023/03/13 01:18:54;;;;;;;32.22;6.40;;;;;;;;;;5110474;28;20074;-79
2023/03/13 01:21:21;;;;;;;32.95;5.90;;;;;;;;;;5109660;28;20080;-79
2023/03/13 01:23:48;;;;;;;40.08;6.22;;;;;;;;;;5096643;28;20058;-79
2023/03/13 01:26:14;;;;;;;33.47;6.05;;;;;;;;;;5095113;28;20053;-80
2023/03/13 01:28:44;;;;;;;33.33;6.15;;;;;;;;;;5095731;28;20088;-79
2023/03/13 01:31:20;;;;;;;31.55;6.18;;;;;;;;;;5099698;28;20053;-80
2023/03/13 01:33:47;;;;;;;33.75;6.22;;;;;;;;;;5087618;28;20383;-80
2023/03/13 01:36:13;;;;;;;32.83;5.80;;;;;;;;;;5083606;28;20049;-80
2023/03/13 01:38:40;;;;;;;33.03;5.70;;;;;;;;;;5087151;28;20051;-80
2023/03/13 01:41:07;;;;;;;34.85;6.80;;;;;;;;;;5080000;28;20044;-80
2023/03/13 01:43:35;;;;;;;28.85;5.85;;;;;;;;;;5088264;28;20081;-80
2023/03/13 01:46:04;;;;;;;36.58;6.43;;;;;;;;;;5083866;28;20059;-79
2023/03/13 01:48:40;;;;;;;34.63;6.80;;;;;;;;;;5079012;28;20048;-80
2023/03/13 01:51:12;;;;;;;31.05;5.50;;;;;;;;;;5074177;28;20128;-77
2023/03/13 01:53:40;;;;;;;27.35;5.85;;;;;;;;;;5079555;28;20041;-79
2023/03/13 01:56:08;;;;;;;34.60;6.53;;;;;;;;;;5095746;28;20048;-80
2023/03/13 01:58:35;;;;;;;28.27;6.00;;;;;;;;;;5086549;28;20041;-80
2023/03/13 02:01:02;;;;;;;27.98;6.03;;;;;;;;;;5079909;28;20146;-80
2023/03/13 02:03:28;;;;;;;31.58;5.72;;;;;;;;;;5095747;28;20078;-80
2023/03/13 02:05:55;;;;;;;32.80;6.20;;;;;;;;;;5095100;28;20402;-79
2023/03/13 02:08:22;;;;;;;31.42;5.97;;;;;;;;;;5092213;28;20052;-80
2023/03/13 02:10:50;;;;;;;30.73;6.20;;;;;;;;;;5093256;28;20048;-79
2023/03/13 02:13:17;;;;;;;32.33;5.35;;;;;;;;;;5095038;28;20044;-79
2023/03/13 02:15:43;;;;;;;29.17;5.82;;;;;;;;;;5093832;28;20048;-80
2023/03/13 02:18:10;;;;;;;31.92;6.50;;;;;;;;;;5095344;28;20051;-80
2023/03/13 02:20:38;;;;;;;29.05;5.95;;;;;;;;;;5095240;28;20485;-80
2023/03/13 02:23:10;;;;;;;31.67;5.78;;;;;;;;;;5085357;28;20047;-79
2023/03/13 02:25:44;;;;;;;27.25;6.15;;;;;;;;;;5073371;28;20079;-80
2023/03/13 02:28:32;;;;;;;33.55;6.45;;;;;;;;;;5078871;28;20124;-80
2023/03/13 02:30:59;;;;;;;29.73;5.85;;;;;;;;;;5075037;28;20048;-80
2023/03/13 02:33:29;;;;;;;32.47;5.80;;;;;;;;;;5073703;28;20037;-80
2023/03/13 02:35:56;;;;;;;31.55;6.03;;;;;;;;;;5085855;28;20036;-80
2023/03/13 02:38:26;;;;;;;23.73;5.85;;;;;;;;;;5078523;28;20040;-80
2023/03/13 02:40:53;;;;;;;28.08;5.15;;;;;;;;;;5078738;28;20048;-80
2023/03/13 02:43:39;;;;;;;27.40;5.40;;;;;;;;;;5071631;28;20049;-80
2023/03/13 02:46:13;;;;;;;24.23;5.38;;;;;;;;;;5076896;28;20058;-80
2023/03/13 02:48:40;;;;;;;24.27;5.28;;;;;;;;;;5089365;28;20398;-81
2023/03/13 02:51:11;;;;;;;23.08;5.63;;;;;;;;;;5083448;28;20123;-78
2023/03/13 02:53:37;;;;;;;22.80;4.93;;;;;;;;;;5074691;28;20402;-81
2023/03/13 02:56:04;;;;;;;17.65;4.60;;;;;;;;;;5081879;28;20036;-81
2023/03/13 02:58:35;;;;;;;22.83;5.32;;;;;;;;;;5080422;28;20040;-80
2023/03/13 03:01:06;;;;;;;19.50;4.70;;;;;;;;;;5081616;28;20102;-81
2023/03/13 03:03:33;;;;;;;16.63;4.57;;;;;;;;;;5079832;28;20498;-80
2023/03/13 03:06:00;;;;;;;13.88;3.95;;;;;;;;;;5090117;28;20052;-80
2023/03/13 03:08:26;;;;;;;18.48;4.38;;;;;;;;;;5081936;28;20060;-80
2023/03/13 03:10:52;;;;;;;13.48;3.80;;;;;;;;;;5080399;28;20044;-81
2023/03/13 03:13:18;;;;;;;14.13;4.00;;;;;;;;;;5080533;28;20036;-80
2023/03/13 03:15:44;;;;;;;12.48;3.35;;;;;;;;;;5079756;28;20051;-81
2023/03/13 03:18:10;;;;;;;13.23;3.80;;;;;;;;;;5098830;28;20551;-80
2023/03/13 03:20:36;;;;;;;11.13;3.67;;;;;;;;;;5100473;28;20089;-81
2023/03/13 03:23:02;;;;;;;11.35;3.47;;;;;;;;;;5098906;28;20048;-80
2023/03/13 03:25:28;;;;;;;14.02;3.80;;;;;;;;;;5093698;28;20414;-81
2023/03/13 03:27:55;;;;;;;14.10;3.10;;;;;;;;;;5098878;28;20048;-81
2023/03/13 03:30:21;;;;;;;11.82;3.30;;;;;;;;;;5099062;28;20051;-81
2023/03/13 03:32:47;;;;;;;12.02;3.17;;;;;;;;;;5087878;28;20036;-81
2023/03/13 03:35:13;;;;;;;11.23;3.30;;;;;;;;;;5099441;28;20043;-81
2023/03/13 03:37:39;;;;;;;11.63;3.17;;;;;;;;;;5096895;28;20048;-79
2023/03/13 03:40:05;;;;;;;10.10;3.08;;;;;;;;;;5089592;28;20076;-80
2023/03/13 03:42:32;;;;;;;7.70;2.83;;;;;;;;;;5086954;28;20093;-81
2023/03/13 03:44:58;;;;;;;10.38;3.42;;;;;;;;;;5088216;28;20079;-80
2023/03/13 03:47:24;;;;;;;9.63;3.50;;;;;;;;;;5079564;28;20445;-81
2023/03/13 03:49:50;;;;;;;10.30;3.30;;;;;;;;;;5076165;28;20048;-81
2023/03/13 03:52:19;;;;;;;8.00;3.15;;;;;;;;;;5080961;28;20040;-81
2023/03/13 03:54:45;;;;;;;10.80;3.55;;;;;;;;;;5079030;28;20459;-81
2023/03/13 03:57:11;;;;;;;9.32;3.65;;;;;;;;;;5090061;28;20075;-80
2023/03/13 03:59:37;;;;;;;10.57;3.53;;;;;;;;;;5087174;28;20482;-81
2023/03/13 04:02:04;;;;;;;10.50;3.80;;;;;;;;;;5078006;28;20046;-81
2023/03/13 04:04:30;;;;;;;11.50;3.92;;;;;;;;;;5077058;28;20407;-81
2023/03/13 04:06:56;;;;;;;9.73;3.83;;;;;;;;;;5078311;28;20123;-81
2023/03/13 04:09:22;;;;;;;12.82;4.25;;;;;;;;;;5088513;28;20051;-81
2023/03/13 04:11:48;;;;;;;12.00;4.13;;;;;;;;;;5081919;28;20058;-81
2023/03/13 04:14:14;;;;;;;11.13;3.38;;;;;;;;;;5096119;28;20052;-81
2023/03/13 04:16:40;;;;;;;10.65;3.55;;;;;;;;;;5084791;28;20054;-81
2023/03/13 04:19:06;;;;;;;9.43;4.22;;;;;;;;;;5080380;28;20041;-81
2023/03/13 04:21:32;;;;;;;10.20;3.67;;;;;;;;;;5078135;28;20048;-80
2023/03/13 04:23:59;;;;;;;10.50;3.75;;;;;;;;;;5081398;28;20052;-81
2023/03/13 04:26:25;;;;;;;8.02;3.47;;;;;;;;;;5092165;28;20066;-81
2023/03/13 04:28:51;;;;;;;9.40;3.95;;;;;;;;;;5085119;28;20043;-80
2023/03/13 04:31:17;;;;;;;10.25;3.80;;;;;;;;;;5092700;28;20045;-80
2023/03/13 04:33:43;;;;;;;13.27;3.83;;;;;;;;;;5089165;28;20131;-81
2023/03/13 04:36:09;;;;;;;10.05;4.00;;;;;;;;;;5089413;28;20040;-80
2023/03/13 04:38:36;;;;;;;10.27;4.25;;;;;;;;;;5075486;28;20036;-81
2023/03/13 04:41:02;;;;;;;7.60;3.63;;;;;;;;;;5073168;28;20052;-81
2023/03/13 04:43:28;;;;;;;13.75;5.10;;;;;;;;;;5081352;28;20509;-81
2023/03/13 04:45:54;;;;;;;9.02;4.00;;;;;;;;;;5080961;28;20127;-80
2023/03/13 04:48:20;;;;;;;9.38;4.40;;;;;;;;;;5092156;28;20558;-81
2023/03/13 04:50:47;;;;;;;7.32;4.07;;;;;;;;;;5081253;28;20040;-80
2023/03/13 04:53:13;;;;;;;10.52;4.10;;;;;;;;;;5082895;28;20498;-80
2023/03/13 04:55:40;;;;;;;8.55;4.07;;;;;;;;;;5079489;28;20441;-78
2023/03/13 04:58:06;;;;;;;8.35;4.55;;;;;;;;;;5075936;28;20044;-80
2023/03/13 05:00:32;;;;;;;8.43;4.25;;;;;;;;;;5073270;28;20053;-80
2023/03/13 05:02:58;;;;;;;9.07;4.82;;;;;;;;;;5076565;28;20053;-80
2023/03/13 05:05:24;;;;;;;6.97;4.53;;;;;;;;;;5074467;28;20079;-80
2023/03/13 05:07:50;;;;;;;8.35;4.50;;;;;;;;;;5073797;28;20521;-80
2023/03/13 05:10:16;;;;;;;9.25;5.90;;;;;;;;;;5076387;28;20058;-80
2023/03/13 05:12:42;;;;;;;10.27;5.15;;;;;;;;;;5078341;28;20052;-80
2023/03/13 05:15:08;;;;;;;9.52;5.15;;;;;;;;;;5087545;28;20455;-80
2023/03/13 05:17:34;;;;;;;10.07;5.35;;;;;;;;;;5097781;28;20052;-80
2023/03/13 05:20:01;;;;;;;9.23;4.78;;;;;;;;;;5097500;28;20413;-81
2023/03/13 05:22:27;;;;;;;9.50;5.20;;;;;;;;;;5097363;28;20044;-80
2023/03/13 05:24:53;;;;;;;10.57;4.72;;;;;;;;;;5096649;28;20069;-79
2023/03/13 05:27:19;;;;;;;8.73;4.75;;;;;;;;;;5095619;28;20375;-81
2023/03/13 05:29:45;;;;;;;9.65;5.60;;;;;;;;;;5078648;28;20037;-81
2023/03/13 05:32:11;;;;;;;9.65;5.07;;;;;;;;;;5095174;28;20173;-80
2023/03/13 05:34:37;;;;;;;7.38;5.55;;;;;;;;;;5096182;28;20048;-80
2023/03/13 05:37:03;;;;;;;10.07;5.45;;;;;;;;;;5096881;28;20045;-80
2023/03/13 05:39:29;;;;;;;9.02;5.45;;;;;;;;;;5097353;28;20043;-80
2023/03/13 05:41:55;;;;;;;10.32;5.57;;;;;;;;;;5084150;28;20048;-80
2023/03/13 05:44:21;;;;;;;9.73;5.65;;;;;;;;;;5085733;28;20049;-80
2023/03/13 05:46:47;;;;;;;9.57;5.50;;;;;;;;;;5081480;28;20131;-80
2023/03/13 05:49:13;;;;;;;8.10;5.30;;;;;;;;;;5076744;28;20502;-80
2023/03/13 05:51:39;;;;;;;9.00;5.07;;;;;;;;;;5078753;28;20045;-80
2023/03/13 05:54:05;;;;;;;10.13;5.93;;;;;;;;;;5079928;28;20044;-79
2023/03/13 05:56:31;;;;;;;9.02;5.90;;;;;;;;;;5094582;28;20044;-81
2023/03/13 05:58:57;;;;;;;8.25;5.28;;;;;;;;;;5084635;28;20490;-81
2023/03/13 06:01:23;;;;;;;11.38;6.70;;;;;;;;;;5076193;28;20048;-82
2023/03/13 06:03:49;;;;;;;9.02;6.03;;;;;;;;;;5077455;28;20064;-80
2023/03/13 06:06:15;;;;;;;9.48;6.22;;;;;;;;;;5088172;28;20049;-81
2023/03/13 06:08:41;;;;;;;12.05;6.55;;;;;;;;;;5084038;28;20490;-81
2023/03/13 06:11:08;;;;;;;10.27;6.88;;;;;;;;;;5083730;28;20386;-80
2023/03/13 06:13:34;;;;;;;10.40;6.68;;;;;;;;;;5089405;28;20055;-81
2023/03/13 06:16:00;;;;;;;10.80;6.45;;;;;;;;;;5076190;28;20505;-81
2023/03/13 06:18:26;;;;;;;10.73;7.20;;;;;;;;;;5084292;28;20041;-80
2023/03/13 06:20:59;;;;;;;10.77;7.45;;;;;;;;;;5091623;28;20054;-80
2023/03/13 06:23:25;;;;;;;13.40;8.07;;;;;;;;;;5082927;28;20043;-81
2023/03/13 06:25:51;;;;;;;16.85;9.23;;;;;;;;;;5075272;28;20488;-81
2023/03/13 06:28:17;;;;;;;16.67;9.35;;;;;;;;;;5076892;28;20048;-80
2023/03/13 06:30:43;;;;;;;14.65;9.80;;;;;;;;;;5087049;28;20032;-80
2023/03/13 06:33:10;;;;;;;16.35;8.80;;;;;;;;;;5083362;28;20457;-80
2023/03/13 06:35:39;;;;;;;15.20;8.70;;;;;;;;;;5086874;28;20039;-80
2023/03/13 06:38:05;;;;;;;15.25;8.15;;;;;;;;;;5091568;28;20375;-81
2023/03/13 06:40:31;;;;;;;12.80;7.43;;;;;;;;;;5079290;28;20065;-80
2023/03/13 06:42:57;;;;;;;12.68;6.72;;;;;;;;;;5086159;28;20048;-80
2023/03/13 06:45:23;;;;;;;15.05;6.60;;;;;;;;;;5080824;28;20040;-81
2023/03/13 06:47:51;;;;;;;16.48;7.07;;;;;;;;;;5085111;28;20040;-79
2023/03/13 06:50:20;;;;;;;16.10;6.60;;;;;;;;;;5090202;28;20056;-80
2023/03/13 06:52:47;;;;;;;18.80;6.75;;;;;;;;;;5083350;28;20494;-80
2023/03/13 06:55:13;;;;;;;14.93;6.07;;;;;;;;;;5085770;28;20075;-80
2023/03/13 06:57:39;;;;;;;14.20;6.22;;;;;;;;;;5081771;28;20418;-80
2023/03/13 07:00:06;;;;;;;15.30;5.68;;;;;;;;;;5078977;28;20051;-80
2023/03/13 07:02:32;;;;;;;17.60;6.50;;;;;;;;;;5094102;28;20085;-80
2023/03/13 07:04:58;;;;;;;13.25;5.90;;;;;;;;;;5088636;28;20521;-79
2023/03/13 07:07:24;;;;;;;13.32;4.97;;;;;;;;;;5080372;28;20060;-79
2023/03/13 07:09:50;;;;;;;14.07;5.40;;;;;;;;;;5080482;28;20052;-79
2023/03/13 07:12:16;;;;;;;12.55;4.95;;;;;;;;;;5100312;28;20475;-80
2023/03/13 07:14:44;;;;;;;15.68;5.05;;;;;;;;;;5093998;28;20049;-79
2023/03/13 07:17:11;;;;;;;13.52;5.28;;;;;;;;;;5084319;28;20090;-80
2023/03/13 07:19:38;;;;;;;12.18;4.60;;;;;;;;;;5092440;28;20529;-79
2023/03/13 07:22:04;;;;;;;12.13;4.82;;;;;;;;;;5082375;28;20052;-80
2023/03/13 07:24:30;;;;;;;14.02;4.95;;;;;;;;;;5078566;28;20044;-80
2023/03/13 07:26:57;;;;;;;17.23;5.82;;;;;;;;;;5083333;28;20063;-80
2023/03/13 07:29:23;;;;;;;17.55;5.00;;;;;;;;;;5080911;28;20092;-80
2023/03/13 07:31:49;;;;;;;15.23;5.30;;;;;;;;;;5077760;28;20055;-80
2023/03/13 07:34:15;;;;;;;14.23;5.18;;;;;;;;;;5085153;28;20069;-79
2023/03/13 07:36:41;;;;;;;13.55;4.93;;;;;;;;;;5085032;28;20547;-79
2023/03/13 07:39:07;;;;;;;17.15;4.57;;;;;;;;;;5088338;28;20055;-79
2023/03/13 07:41:33;;;;;;;15.77;3.90;;;;;;;;;;5088558;28;20078;-80
2023/03/13 07:44:00;;;;;;;13.50;4.47;;;;;;;;;;5088371;28;20458;-80
2023/03/13 07:46:26;;;;;;;17.02;5.00;;;;;;;;;;5096919;28;20055;-80
2023/03/13 07:48:54;;;;;;;9.90;4.10;;;;;;;;;;5086150;28;20044;-80
2023/03/13 07:51:21;;;;;;;15.95;4.22;;;;;;;;;;5078064;28;20142;-80
2023/03/13 07:53:47;;;;;;;15.13;4.15;;;;;;;;;;5076341;28;20482;-80
2023/03/13 07:56:17;;;;;;;16.10;4.00;;;;;;;;;;5075720;28;20048;-80
2023/03/13 07:58:44;;;;;;;15.52;3.88;;;;;;;;;;5094237;28;20532;-80
2023/03/13 08:01:11;;;;;;;12.27;4.13;;;;;;;;;;5089323;28;20048;-80
2023/03/13 08:03:37;;;;;;;14.48;4.57;;;;;;;;;;5074672;28;20054;-80
2023/03/13 08:06:05;;;;;;;12.32;4.82;;;;;;;;;;5081044;28;20131;-80
2023/03/13 08:08:31;;;;;;;11.40;3.90;;;;;;;;;;5082041;28;20042;-80
2023/03/13 08:11:01;;;;;;;14.32;4.90;;;;;;;;;;5093629;28;20040;-80
2023/03/13 08:13:28;;;;;;;11.68;4.95;;;;;;;;;;5092050;28;20115;-80
2023/03/13 08:16:01;;;;;;;10.18;4.20;;;;;;;;;;5094460;28;20405;-80
2023/03/13 08:18:27;;;;;;;12.52;4.43;;;;;;;;;;5075128;28;20552;-79
2023/03/13 08:20:53;;;;;;;11.18;3.83;;;;;;;;;;5079397;28;20052;-79
2023/03/13 08:23:19;;;;;;;12.85;4.28;;;;;;;;;;5082796;28;20044;-80
2023/03/13 08:25:46;;;;;;;13.00;4.50;;;;;;;;;;5094808;28;20067;-79
2023/03/13 08:28:12;;;;;;;11.40;3.95;;;;;;;;;;5088027;28;20071;-79
2023/03/13 08:30:38;;;;;;;9.70;3.30;;;;;;;;;;5087466;28;20044;-80
2023/03/13 08:33:05;;;;;;;10.27;3.47;;;;;;;;;;5088028;28;20044;-80
2023/03/13 08:35:31;;;;;;;10.65;4.22;;;;;;;;;;5102953;28;20044;-80
2023/03/13 08:37:57;;;;;;;7.70;3.70;;;;;;;;;;5098381;28;20085;-78
2023/03/13 08:40:23;;;;;;;7.25;3.05;;;;;;;;;;5093914;28;20358;-78
2023/03/13 08:42:49;;;;;;;7.30;2.65;;;;;;;;;;5085587;28;20040;-78
2023/03/13 08:45:15;;;;;;;8.13;2.85;;;;;;;;;;5085816;28;20059;-78
2023/03/13 08:47:41;;;;;;;7.45;2.67;;;;;;;;;;5098099;28;20048;-78
2023/03/13 08:50:07;;;;;;;7.95;2.47;;;;;;;;;;5085192;28;20074;-78
2023/03/13 08:52:33;;;;;;;9.80;2.67;;;;;;;;;;5079550;28;20094;-78
2023/03/13 08:54:59;;;;;;;9.45;2.72;;;;;;;;;;5078420;28;21043;-78
2023/03/13 08:57:25;;;;;;;8.68;2.72;;;;;;;;;;5079402;28;20040;-78
2023/03/13 08:59:51;;;;;;;7.75;2.58;;;;;;;;;;5088313;28;20486;-78
2023/03/13 09:02:19;;;;;;;8.10;2.53;;;;;;;;;;5090680;28;20047;-78
2023/03/13 09:04:46;;;;;;;6.28;2.15;;;;;;;;;;5088638;28;20074;-78
2023/03/13 09:07:12;;;;;;;6.60;2.10;;;;;;;;;;5096872;28;20048;-78
2023/03/13 09:09:38;;;;;;;7.45;2.25;;;;;;;;;;5098495;28;20059;-78
2023/03/13 09:12:05;;;;;;;9.73;2.42;;;;;;;;;;5096827;28;20086;-78
2023/03/13 09:14:31;;;;;;;8.77;2.28;;;;;;;;;;5097786;28;20052;-78
2023/03/13 09:16:58;;;;;;;6.95;2.10;;;;;;;;;;5077508;28;20059;-78
2023/03/13 09:19:24;;;;;;;6.47;2.20;;;;;;;;;;5076356;28;20047;-78
2023/03/13 09:21:50;;;;;;;5.90;2.00;;;;;;;;;;5081500;28;20044;-78
2023/03/13 09:24:16;;;;;;;5.07;1.88;;;;;;;;;;5078443;28;20040;-79
2023/03/13 09:26:42;;;;;;;5.82;1.90;;;;;;;;;;5077870;28;20078;-78
2023/03/13 09:29:09;;;;;;;8.48;1.77;;;;;;;;;;5080403;28;20072;-78
2023/03/13 09:31:37;;;;;;;6.28;2.03;;;;;;;;;;5090306;28;20070;-78
2023/03/13 09:34:03;;;;;;;6.90;1.85;;;;;;;;;;5078841;28;20079;-78
2023/03/13 09:36:29;;;;;;;9.05;1.63;;;;;;;;;;5079730;28;20094;-78
2023/03/13 09:38:56;;;;;;;9.50;2.30;;;;;;;;;;5076939;28;20098;-78
2023/03/13 09:41:25;;;;;;;9.23;2.35;;;;;;;;;;5082892;28;20060;-78
2023/03/13 09:44:12;;;;;;;8.57;2.40;;;;;;;;;;5086165;28;20040;-78
2023/03/13 09:46:56;;;;;;;8.63;2.10;;;;;;;;;;5094258;28;20048;-78
2023/03/13 09:49:34;;;;;;;10.98;2.38;;;;;;;;;;5086401;28;20105;-77
2023/03/13 09:52:03;;;;;;;8.40;1.85;;;;;;;;;;5086715;28;20398;-77
2023/03/13 09:54:38;;;;;;;8.32;1.80;;;;;;;;;;5084022;28;20135;-77
2023/03/13 09:57:15;;;;;;;7.50;1.65;;;;;;;;;;5080204;28;20055;-77
2023/03/13 09:59:47;;;;;;;7.65;1.45;;;;;;;;;;5079227;28;20128;-77
2023/03/13 10:02:19;;;;;;;8.20;1.70;;;;;;;;;;5085168;28;20481;-78
2023/03/13 10:04:49;;;;;;;7.10;1.50;;;;;;;;;;5077084;28;20045;-77
2023/03/13 10:07:15;;;;;;;8.35;1.52;;;;;;;;;;5085643;28;20052;-77
2023/03/13 10:09:42;;;;;;;9.63;1.80;;;;;;;;;;5081410;28;20090;-78
2023/03/13 10:12:20;;;;;;;7.72;1.70;;;;;;;;;;5086199;28;20063;-78
2023/03/13 10:14:46;;;;;;;7.38;2.00;;;;;;;;;;5081670;28;20538;-78
2023/03/13 10:17:30;;;;;;;8.88;1.90;;;;;;;;;;5075555;28;20507;-78
2023/03/13 10:20:00;;;;;;;8.35;1.98;;;;;;;;;;5075067;28;20374;-78
2023/03/13 10:22:28;;;;;;;8.57;1.98;;;;;;;;;;5091736;28;20498;-77
2023/03/13 10:24:57;;;;;;;7.18;1.77;;;;;;;;;;5075849;28;20498;-77
2023/03/13 10:27:23;;;;;;;10.38;2.17;;;;;;;;;;5093940;28;20052;-77
2023/03/13 10:29:49;;;;;;;9.02;2.30;;;;;;;;;;5079693;28;20522;-78
2023/03/13 10:32:16;;;;;;;9.60;1.95;;;;;;;;;;5075170;28;20052;-77
2023/03/13 10:34:51;;;;;;;10.80;2.03;;;;;;;;;;5074922;28;20041;-78
2023/03/13 10:37:22;;;;;;;10.38;1.90;;;;;;;;;;5094417;28;20097;-77
2023/03/13 10:39:52;;;;;;;8.55;2.15;;;;;;;;;;5082957;28;20044;-77
2023/03/13 10:42:20;;;;;;;7.80;1.88;;;;;;;;;;5082994;28;20044;-78
2023/03/13 10:44:47;;;;;;;11.07;2.10;;;;;;;;;;5075711;28;20048;-78
2023/03/13 10:47:16;;;;;;;9.27;2.83;;;;;;;;;;5081345;28;20070;-78
2023/03/13 10:49:50;;;;;;;9.63;2.70;;;;;;;;;;5095975;28;20047;-78
2023/03/13 10:52:28;;;;;;;10.90;2.72;;;;;;;;;;5080726;28;20039;-78
2023/03/13 10:54:58;;;;;;;11.25;3.30;;;;;;;;;;5081299;28;20051;-78
2023/03/13 10:57:24;;;;;;;16.50;3.03;;;;;;;;;;5075573;28;20059;-78
2023/03/13 10:59:51;;;;;;;8.88;2.35;;;;;;;;;;5075292;28;20063;-78
2023/03/13 11:02:22;;;;;;;11.00;2.80;;;;;;;;;;5075954;28;20044;-77
2023/03/13 11:04:54;;;;;;;11.43;2.40;;;;;;;;;;5075617;28;20083;-78
2023/03/13 11:07:25;;;;;;;11.82;2.70;;;;;;;;;;5079921;28;20083;-78
2023/03/13 11:10:18;;;;;;;10.60;2.60;;;;;;;;;;5075735;28;20048;-78
2023/03/13 11:12:45;;;;;;;8.18;2.20;;;;;;;;;;5074203;28;20239;-78
2023/03/13 11:15:15;;;;;;;8.90;2.40;;;;;;;;;;5057242;28;20044;-78
2023/03/13 11:17:42;;;;;;;10.48;2.75;;;;;;;;;;5078160;28;20401;-78
2023/03/13 11:20:17;;;;;;;9.40;2.08;;;;;;;;;;5091224;28;20055;-79
2023/03/13 11:22:52;;;;;;;8.70;2.10;;;;;;;;;;5075291;28;20073;-77
2023/03/13 11:25:25;;;;;;;7.40;1.83;;;;;;;;;;5074844;28;20048;-77
2023/03/13 11:28:01;;;;;;;10.75;2.53;;;;;;;;;;5073446;28;20052;-77
2023/03/13 11:30:46;;;;;;;10.02;1.98;;;;;;;;;;5076590;28;20044;-78
2023/03/13 11:33:20;;;;;;;8.90;1.92;;;;;;;;;;5090845;28;20048;-77
2023/03/13 11:35:50;;;;;;;8.55;2.10;;;;;;;;;;5108080;28;20048;-77
2023/03/13 11:38:16;;;;;;;12.45;2.25;;;;;;;;;;5102707;28;20103;-77
2023/03/13 11:41:00;;;;;;;7.07;1.67;;;;;;;;;;5114391;28;20061;-78
2023/03/13 11:43:26;;;;;;;7.28;1.42;;;;;;;;;;5113533;28;20046;-77
2023/03/13 11:45:58;;;;;;;8.02;1.58;;;;;;;;;;5115877;28;20127;-78
2023/03/13 11:48:23;;;;;;;;;;;;;;;;;;5106891;28;20047;-77
2023/03/13 11:50:50;;;;;;;10.98;1.95;;;;;;;;;;5093096;28;20335;-78
2023/03/13 11:53:34;;;;;;;6.28;1.73;;;;;;;;;;5089631;28;20050;-78
2023/03/13 11:56:15;;;;;;;7.75;1.63;;;;;;;;;;5098269;28;20024;-77
2023/03/13 11:58:44;;;;;;;7.15;1.65;;;;;;;;;;5104939;28;20122;-77
2023/03/13 12:01:13;;;;;;;6.25;1.38;;;;;;;;;;5100057;28;20100;-78
2023/03/13 12:03:43;;;;;;;7.32;1.60;;;;;;;;;;5105581;28;20104;-77
2023/03/13 12:06:28;;;;;;;6.07;1.50;;;;;;;;;;5100761;28;20048;-77
2023/03/13 12:08:58;;;;;;;7.82;1.35;;;;;;;;;;5098110;28;20052;-77
2023/03/13 12:11:28;;;;;;;6.68;1.50;;;;;;;;;;5095658;28;20072;-77
2023/03/13 12:14:08;;;;;;;6.40;1.70;;;;;;;;;;5097092;28;20077;-77
2023/03/13 12:16:45;;;;;;;7.93;1.55;;;;;;;;;;5105961;28;20036;-78
2023/03/13 12:19:14;;;;;;;7.93;2.13;;;;;;;;;;5108178;28;20056;-78
2023/03/13 12:21:47;;;;;;;7.68;2.13;;;;;;;;;;5091537;28;20044;-78
2023/03/13 12:24:13;;;;;;;7.45;2.45;;;;;;;;;;5089213;28;20044;-78
2023/03/13 12:26:44;;;;;;;9.93;2.50;;;;;;;;;;5088898;28;20047;-78
2023/03/13 12:29:25;;;;;;;7.72;2.65;;;;;;;;;;5075301;28;20074;-78
2023/03/13 12:31:56;;;;;;;8.63;1.83;;;;;;;;;;5074017;28;20396;-78
2023/03/13 12:34:29;;;;;;;7.63;2.10;;;;;;;;;;5083471;28;20052;-78
2023/03/13 12:37:10;;;;;;;9.77;1.70;;;;;;;;;;5073976;28;20069;-78
2023/03/13 12:39:42;;;;;;;9.13;2.25;;;;;;;;;;5073923;28;20045;-78
2023/03/13 12:42:38;;;;;;;7.82;1.88;;;;;;;;;;5079766;28;20044;-78
2023/03/13 12:45:05;;;;;;;9.00;1.55;;;;;;;;;;5091139;28;20212;-78
2023/03/13 12:47:49;;;;;;;8.13;1.70;;;;;;;;;;5092034;28;20036;-78
2023/03/13 12:50:25;;;;;;;7.20;1.40;;;;;;;;;;5110705;28;20035;-78
2023/03/13 12:53:00;;;;;;;11.95;1.80;;;;;;;;;;5102044;28;20520;-78
2023/03/13 12:55:29;;;;;;;7.90;1.60;;;;;;;;;;5093105;28;20067;-78
2023/03/13 12:58:05;;;;;;;9.52;1.83;;;;;;;;;;5111994;28;20051;-78
2023/03/13 13:00:34;;;;;;;7.78;1.38;;;;;;;;;;5111077;28;20057;-78
2023/03/13 13:03:29;;;;;;;11.35;2.05;;;;;;;;;;5110315;28;20051;-78
2023/03/13 13:06:06;;;;;;;8.23;1.48;;;;;;;;;;5101462;28;20055;-78
2023/03/13 13:08:42;;;;;;;8.48;1.48;;;;;;;;;;5111356;28;20138;-78
2023/03/13 13:11:26;;;;;;;6.18;1.38;;;;;;;;;;5111281;28;20047;-78
2023/03/13 13:13:53;;;;;;;6.95;1.65;;;;;;;;;;5110912;28;20081;-78
2023/03/13 13:16:21;;;;;;;10.20;1.50;;;;;;;;;;5110937;28;20051;-78
2023/03/13 13:18:47;;;;;;;7.05;1.50;;;;;;;;;;5086342;28;20052;-78
2023/03/13 13:21:19;;;;;;;6.25;1.30;;;;;;;;;;5102309;28;20056;-77
2023/03/13 13:23:47;;;;;;;8.10;1.70;;;;;;;;;;5073596;28;20053;-77
2023/03/13 13:26:35;;;;;;;9.30;1.75;;;;;;;;;;5071055;28;20123;-77
2023/03/13 13:29:24;;;;;;;10.25;2.00;;;;;;;;;;5071826;28;20044;-77
2023/03/13 13:31:50;;;;;;;9.90;2.00;;;;;;;;;;5090341;28;20056;-77
2023/03/13 13:34:31;;;;;;;13.38;2.45;;;;;;;;;;5088281;28;20050;-78
2023/03/13 13:36:57;;;;;;;13.35;2.40;;;;;;;;;;5096134;28;20055;-78
2023/03/13 13:39:42;;;;;;;11.45;2.67;;;;;;;;;;5091915;28;20105;-78
2023/03/13 13:42:26;;;;;;;11.43;2.50;;;;;;;;;;5075352;28;20573;-78
2023/03/13 13:45:19;;;;;;;12.73;2.58;;;;;;;;;;5084508;28;20044;-77
2023/03/13 13:47:49;;;;;;;8.77;2.08;;;;;;;;;;5094206;28;20067;-78
2023/03/13 13:50:22;;;;;;;9.15;2.00;;;;;;;;;;5080730;28;20122;-78
2023/03/13 13:52:49;;;;;;;11.88;2.42;;;;;;;;;;5095540;28;20052;-78
2023/03/13 13:55:21;;;;;;;11.07;2.40;;;;;;;;;;5086123;28;20087;-78
2023/03/13 13:57:50;;;;;;;10.40;1.95;;;;;;;;;;5080214;28;20048;-78
2023/03/13 14:00:16;;;;;;;9.30;2.03;;;;;;;;;;5080831;28;20055;-78
2023/03/13 14:02:48;;;;;;;8.95;1.90;;;;;;;;;;5078622;28;20425;-78
2023/03/13 14:05:16;;;;;;;10.60;1.90;;;;;;;;;;5086393;28;20052;-78
2023/03/13 14:07:42;;;;;;;9.40;1.85;;;;;;;;;;5094575;28;20056;-78
2023/03/13 14:10:20;;;;;;;13.48;2.53;;;;;;;;;;5089707;28;20052;-78
2023/03/13 14:12:47;;;;;;;10.13;2.15;;;;;;;;;;5072951;28;20048;-79
2023/03/13 14:15:13;;;;;;;10.27;1.83;;;;;;;;;;5076460;28;20047;-78
2023/03/13 14:17:50;;;;;;;10.30;2.28;;;;;;;;;;5074617;28;20101;-78
2023/03/13 14:20:36;;;;;;;10.88;2.10;;;;;;;;;;5074222;28;20049;-78
2023/03/13 14:23:07;;;;;;;9.25;1.77;;;;;;;;;;5076639;28;20044;-78
2023/03/13 14:25:42;;;;;;;14.70;2.70;;;;;;;;;;5074524;28;20044;-78
2023/03/13 14:28:16;;;;;;;9.95;2.30;;;;;;;;;;5074354;28;20044;-78
2023/03/13 14:30:43;;;;;;;10.40;2.58;;;;;;;;;;5087154;28;20048;-78
2023/03/13 14:33:09;;;;;;;12.40;2.97;;;;;;;;;;5093433;28;20086;-78
2023/03/13 14:35:35;;;;;;;16.50;3.22;;;;;;;;;;5085512;28;20040;-77
2023/03/13 14:38:02;;;;;;;14.40;3.08;;;;;;;;;;5094368;28;20406;-77
2023/03/13 14:40:28;;;;;;;14.20;3.00;;;;;;;;;;5094357;28;20048;-78
2023/03/13 14:42:56;;;;;;;10.90;2.95;;;;;;;;;;5075744;28;20076;-78
2023/03/13 14:45:29;;;;;;;14.48;2.83;;;;;;;;;;5073757;28;20102;-78